sensor_id;sensor_type;location;lat;lon;timestamp;P1;durP1;ratioP1;P2;durP2;ratioP2
10731;SDS011;5417;42.686;23.244;2022-09-09T00:00:01;10.37;;;9.37;;
10731;SDS011;5417;42.686;23.244;2022-09-09T00:02:33;10.30;;;9.53;;
10731;SDS011;5417;42.686;23.244;2022-09-09T00:05:04;10.70;;;9.80;;
10731;SDS011;5417;42.686;23.244;2022-09-09T00:07:41;10.60;;;9.63;;
10731;SDS011;5417;42.686;23.244;2022-09-09T00:10:18;12.50;;;10.27;;
10731;SDS011;5417;42.686;23.244;2022-09-09T00:12:53;11.00;;;10.20;;
10731;SDS011;5417;42.686;23.244;2022-09-09T00:15:26;11.20;;;9.47;;
10731;SDS011;5417;42.686;23.244;2022-09-09T00:18:02;11.43;;;10.47;;
10731;SDS011;5417;42.686;23.244;2022-09-09T00:20:38;11.00;;;10.10;;
10731;SDS011;5417;42.686;23.244;2022-09-09T00:23:12;11.50;;;10.50;;
10731;SDS011;5417;42.686;23.244;2022-09-09T00:25:45;11.50;;;10.33;;
10731;SDS011;5417;42.686;23.244;2022-09-09T00:28:20;10.57;;;9.67;;
10731;SDS011;5417;42.686;23.244;2022-09-09T00:30:49;11.10;;;10.20;;
10731;SDS011;5417;42.686;23.244;2022-09-09T00:33:17;11.10;;;10.03;;
10731;SDS011;5417;42.686;23.244;2022-09-09T00:35:48;11.60;;;10.40;;
10731;SDS011;5417;42.686;23.244;2022-09-09T00:38:17;11.00;;;10.10;;
10731;SDS011;5417;42.686;23.244;2022-09-09T00:40:52;9.97;;;9.27;;
10731;SDS011;5417;42.686;23.244;2022-09-09T00:43:26;10.20;;;9.40;;
10731;SDS011;5417;42.686;23.244;2022-09-09T00:46:04;10.13;;;9.43;;
10731;SDS011;5417;42.686;23.244;2022-09-09T00:48:43;10.20;;;9.50;;
10731;SDS011;5417;42.686;23.244;2022-09-09T00:51:19;11.60;;;10.53;;
10731;SDS011;5417;42.686;23.244;2022-09-09T00:53:57;10.73;;;9.53;;
10731;SDS011;5417;42.686;23.244;2022-09-09T00:56:37;10.10;;;9.20;;
10731;SDS011;5417;42.686;23.244;2022-09-09T00:59:14;10.53;;;9.73;;
10731;SDS011;5417;42.686;23.244;2022-09-09T01:05:12;10.00;;;9.20;;
10731;SDS011;5417;42.686;23.244;2022-09-09T01:11:05;11.73;;;10.87;;
10731;SDS011;5417;42.686;23.244;2022-09-09T01:21:09;11.10;;;10.20;;
10731;SDS011;5417;42.686;23.244;2022-09-09T01:31:09;11.97;;;10.87;;
10731;SDS011;5417;42.686;23.244;2022-09-09T01:33:40;10.50;;;9.70;;
10731;SDS011;5417;42.686;23.244;2022-09-09T01:36:08;11.43;;;10.40;;
10731;SDS011;5417;42.686;23.244;2022-09-09T01:38:39;12.23;;;11.13;;
10731;SDS011;5417;42.686;23.244;2022-09-09T01:41:06;11.40;;;10.50;;
10731;SDS011;5417;42.686;23.244;2022-09-09T01:46:56;11.47;;;10.67;;
10731;SDS011;5417;42.686;23.244;2022-09-09T01:52:46;11.97;;;10.90;;
10731;SDS011;5417;42.686;23.244;2022-09-09T01:55:16;11.73;;;10.60;;
10731;SDS011;5417;42.686;23.244;2022-09-09T01:57:50;11.73;;;10.63;;
10731;SDS011;5417;42.686;23.244;2022-09-09T02:00:26;11.70;;;10.70;;
10731;SDS011;5417;42.686;23.244;2022-09-09T02:02:57;11.50;;;10.37;;
10731;SDS011;5417;42.686;23.244;2022-09-09T02:05:36;10.50;;;9.50;;
10731;SDS011;5417;42.686;23.244;2022-09-09T02:11:27;10.67;;;9.77;;
10731;SDS011;5417;42.686;23.244;2022-09-09T02:20:53;11.77;;;10.73;;
10731;SDS011;5417;42.686;23.244;2022-09-09T02:26:43;12.47;;;11.40;;
10731;SDS011;5417;42.686;23.244;2022-09-09T02:29:21;11.50;;;10.50;;
10731;SDS011;5417;42.686;23.244;2022-09-09T02:31:51;11.57;;;10.60;;
10731;SDS011;5417;42.686;23.244;2022-09-09T02:34:22;12.00;;;10.87;;
10731;SDS011;5417;42.686;23.244;2022-09-09T02:36:54;13.87;;;11.43;;
10731;SDS011;5417;42.686;23.244;2022-09-09T02:39:23;12.13;;;11.17;;
10731;SDS011;5417;42.686;23.244;2022-09-09T02:45:12;11.77;;;10.97;;
10731;SDS011;5417;42.686;23.244;2022-09-09T02:47:42;12.60;;;11.40;;
10731;SDS011;5417;42.686;23.244;2022-09-09T02:50:16;13.87;;;12.47;;
10731;SDS011;5417;42.686;23.244;2022-09-09T02:52:53;13.03;;;11.83;;
10731;SDS011;5417;42.686;23.244;2022-09-09T02:55:31;12.60;;;11.43;;
10731;SDS011;5417;42.686;23.244;2022-09-09T03:01:26;13.40;;;12.30;;
10731;SDS011;5417;42.686;23.244;2022-09-09T03:03:53;13.03;;;11.20;;
10731;SDS011;5417;42.686;23.244;2022-09-09T03:06:20;13.17;;;11.97;;
10731;SDS011;5417;42.686;23.244;2022-09-09T03:08:48;12.40;;;11.20;;
10731;SDS011;5417;42.686;23.244;2022-09-09T03:11:17;12.53;;;11.33;;
10731;SDS011;5417;42.686;23.244;2022-09-09T03:13:44;11.40;;;10.53;;
10731;SDS011;5417;42.686;23.244;2022-09-09T03:16:12;12.03;;;10.90;;
10731;SDS011;5417;42.686;23.244;2022-09-09T03:18:40;11.70;;;10.70;;
10731;SDS011;5417;42.686;23.244;2022-09-09T03:21:07;10.93;;;10.13;;
10731;SDS011;5417;42.686;23.244;2022-09-09T03:23:34;11.63;;;10.80;;
10731;SDS011;5417;42.686;23.244;2022-09-09T03:26:03;10.97;;;10.17;;
10731;SDS011;5417;42.686;23.244;2022-09-09T03:28:30;12.53;;;11.33;;
10731;SDS011;5417;42.686;23.244;2022-09-09T03:31:00;11.80;;;10.83;;
10731;SDS011;5417;42.686;23.244;2022-09-09T03:33:27;12.07;;;11.03;;
10731;SDS011;5417;42.686;23.244;2022-09-09T03:35:54;11.73;;;10.73;;
10731;SDS011;5417;42.686;23.244;2022-09-09T03:38:22;11.47;;;10.57;;
10731;SDS011;5417;42.686;23.244;2022-09-09T03:40:49;12.33;;;11.40;;
10731;SDS011;5417;42.686;23.244;2022-09-09T03:43:21;15.83;;;11.70;;
10731;SDS011;5417;42.686;23.244;2022-09-09T03:45:48;13.67;;;12.50;;
10731;SDS011;5417;42.686;23.244;2022-09-09T03:48:16;14.20;;;12.70;;
10731;SDS011;5417;42.686;23.244;2022-09-09T03:50:44;13.17;;;12.07;;
10731;SDS011;5417;42.686;23.244;2022-09-09T03:53:11;13.83;;;12.40;;
10731;SDS011;5417;42.686;23.244;2022-09-09T03:55:38;13.30;;;12.13;;
10731;SDS011;5417;42.686;23.244;2022-09-09T03:58:06;12.33;;;11.37;;
10731;SDS011;5417;42.686;23.244;2022-09-09T04:00:35;12.73;;;11.83;;
10731;SDS011;5417;42.686;23.244;2022-09-09T04:03:02;13.67;;;12.33;;
10731;SDS011;5417;42.686;23.244;2022-09-09T04:05:29;17.50;;;12.93;;
10731;SDS011;5417;42.686;23.244;2022-09-09T04:07:56;14.00;;;12.50;;
10731;SDS011;5417;42.686;23.244;2022-09-09T04:10:23;13.23;;;12.03;;
10731;SDS011;5417;42.686;23.244;2022-09-09T04:12:50;14.53;;;13.03;;
10731;SDS011;5417;42.686;23.244;2022-09-09T04:15:17;15.00;;;13.40;;
10731;SDS011;5417;42.686;23.244;2022-09-09T04:17:46;14.73;;;13.30;;
10731;SDS011;5417;42.686;23.244;2022-09-09T04:20:13;14.73;;;13.43;;
10731;SDS011;5417;42.686;23.244;2022-09-09T04:22:40;13.70;;;12.37;;
10731;SDS011;5417;42.686;23.244;2022-09-09T04:25:07;13.97;;;12.57;;
10731;SDS011;5417;42.686;23.244;2022-09-09T04:27:34;16.10;;;12.47;;
10731;SDS011;5417;42.686;23.244;2022-09-09T04:30:01;12.10;;;10.93;;
10731;SDS011;5417;42.686;23.244;2022-09-09T04:32:29;14.23;;;12.47;;
10731;SDS011;5417;42.686;23.244;2022-09-09T04:34:57;15.53;;;11.17;;
10731;SDS011;5417;42.686;23.244;2022-09-09T04:37:24;12.87;;;11.50;;
10731;SDS011;5417;42.686;23.244;2022-09-09T04:39:51;12.23;;;11.07;;
10731;SDS011;5417;42.686;23.244;2022-09-09T04:42:18;12.73;;;11.37;;
10731;SDS011;5417;42.686;23.244;2022-09-09T04:44:45;13.30;;;10.80;;
10731;SDS011;5417;42.686;23.244;2022-09-09T04:47:12;13.60;;;11.00;;
10731;SDS011;5417;42.686;23.244;2022-09-09T04:49:40;12.73;;;11.40;;
10731;SDS011;5417;42.686;23.244;2022-09-09T04:52:08;19.40;;;15.30;;
10731;SDS011;5417;42.686;23.244;2022-09-09T04:54:35;17.27;;;12.53;;
10731;SDS011;5417;42.686;23.244;2022-09-09T04:57:02;13.67;;;12.27;;
10731;SDS011;5417;42.686;23.244;2022-09-09T04:59:29;14.17;;;10.53;;
10731;SDS011;5417;42.686;23.244;2022-09-09T05:01:56;13.67;;;10.90;;
10731;SDS011;5417;42.686;23.244;2022-09-09T05:04:26;11.57;;;10.37;;
10731;SDS011;5417;42.686;23.244;2022-09-09T05:06:53;10.80;;;10.00;;
10731;SDS011;5417;42.686;23.244;2022-09-09T05:09:22;10.73;;;9.73;;
10731;SDS011;5417;42.686;23.244;2022-09-09T05:11:49;9.63;;;8.70;;
10731;SDS011;5417;42.686;23.244;2022-09-09T05:14:16;12.07;;;9.70;;
10731;SDS011;5417;42.686;23.244;2022-09-09T05:16:44;9.45;;;8.68;;
10731;SDS011;5417;42.686;23.244;2022-09-09T05:19:12;12.55;;;9.35;;
10731;SDS011;5417;42.686;23.244;2022-09-09T05:21:39;11.05;;;9.77;;
10731;SDS011;5417;42.686;23.244;2022-09-09T05:24:06;14.75;;;10.05;;
10731;SDS011;5417;42.686;23.244;2022-09-09T05:26:35;13.20;;;10.93;;
10731;SDS011;5417;42.686;23.244;2022-09-09T05:29:01;12.65;;;10.65;;
10731;SDS011;5417;42.686;23.244;2022-09-09T05:31:29;13.95;;;10.57;;
10731;SDS011;5417;42.686;23.244;2022-09-09T05:33:56;11.43;;;10.02;;
10731;SDS011;5417;42.686;23.244;2022-09-09T05:36:24;11.65;;;10.70;;
10731;SDS011;5417;42.686;23.244;2022-09-09T05:38:52;12.05;;;10.55;;
10731;SDS011;5417;42.686;23.244;2022-09-09T05:41:19;10.60;;;9.65;;
10731;SDS011;5417;42.686;23.244;2022-09-09T05:43:49;11.15;;;9.88;;
10731;SDS011;5417;42.686;23.244;2022-09-09T05:46:17;11.27;;;10.48;;
10731;SDS011;5417;42.686;23.244;2022-09-09T05:48:48;12.35;;;11.15;;
10731;SDS011;5417;42.686;23.244;2022-09-09T05:51:33;12.00;;;10.93;;
10731;SDS011;5417;42.686;23.244;2022-09-09T05:54:00;11.85;;;10.82;;
10731;SDS011;5417;42.686;23.244;2022-09-09T05:56:27;11.48;;;10.68;;
10731;SDS011;5417;42.686;23.244;2022-09-09T05:58:56;11.35;;;10.50;;
10731;SDS011;5417;42.686;23.244;2022-09-09T06:16:51;11.98;;;11.13;;
10731;SDS011;5417;42.686;23.244;2022-09-09T06:19:19;12.20;;;11.13;;
10731;SDS011;5417;42.686;23.244;2022-09-09T06:21:46;12.52;;;11.18;;
10731;SDS011;5417;42.686;23.244;2022-09-09T06:24:14;12.80;;;10.73;;
10731;SDS011;5417;42.686;23.244;2022-09-09T06:26:42;11.43;;;10.27;;
10731;SDS011;5417;42.686;23.244;2022-09-09T06:29:10;10.60;;;9.55;;
10731;SDS011;5417;42.686;23.244;2022-09-09T06:44:18;11.38;;;10.25;;
10731;SDS011;5417;42.686;23.244;2022-09-09T06:53:44;14.13;;;12.68;;
10731;SDS011;5417;42.686;23.244;2022-09-09T06:59:32;14.10;;;11.98;;
10731;SDS011;5417;42.686;23.244;2022-09-09T07:02:02;11.70;;;10.57;;
10731;SDS011;5417;42.686;23.244;2022-09-09T07:10:48;12.32;;;11.32;;
10731;SDS011;5417;42.686;23.244;2022-09-09T07:16:29;11.23;;;10.23;;
10731;SDS011;5417;42.686;23.244;2022-09-09T07:21:51;12.30;;;11.20;;
10731;SDS011;5417;42.686;23.244;2022-09-09T07:30:56;13.82;;;12.45;;
10731;SDS011;5417;42.686;23.244;2022-09-09T07:36:38;13.63;;;12.25;;
10731;SDS011;5417;42.686;23.244;2022-09-09T07:45:58;14.02;;;12.77;;
10731;SDS011;5417;42.686;23.244;2022-09-09T07:58:40;11.75;;;10.68;;
10731;SDS011;5417;42.686;23.244;2022-09-09T08:07:22;12.52;;;11.23;;
10731;SDS011;5417;42.686;23.244;2022-09-09T08:38:25;12.37;;;11.13;;
10731;SDS011;5417;42.686;23.244;2022-09-09T08:40:53;16.33;;;11.23;;
10731;SDS011;5417;42.686;23.244;2022-09-09T08:43:26;14.33;;;10.53;;
10731;SDS011;5417;42.686;23.244;2022-09-09T08:45:58;10.33;;;9.10;;
10731;SDS011;5417;42.686;23.244;2022-09-09T08:51:58;15.40;;;10.98;;
10731;SDS011;5417;42.686;23.244;2022-09-09T08:54:28;11.10;;;10.10;;
10731;SDS011;5417;42.686;23.244;2022-09-09T08:57:01;13.37;;;10.53;;
10731;SDS011;5417;42.686;23.244;2022-09-09T08:59:29;11.60;;;9.75;;
10731;SDS011;5417;42.686;23.244;2022-09-09T09:02:07;10.43;;;9.43;;
10731;SDS011;5417;42.686;23.244;2022-09-09T09:04:50;11.38;;;10.23;;
10731;SDS011;5417;42.686;23.244;2022-09-09T09:07:28;11.68;;;10.68;;
10731;SDS011;5417;42.686;23.244;2022-09-09T09:10:12;16.90;;;11.70;;
10731;SDS011;5417;42.686;23.244;2022-09-09T09:15:24;14.90;;;10.80;;
10731;SDS011;5417;42.686;23.244;2022-09-09T09:17:53;13.95;;;11.75;;
10731;SDS011;5417;42.686;23.244;2022-09-09T09:20:21;12.27;;;11.05;;
10731;SDS011;5417;42.686;23.244;2022-09-09T09:22:55;11.70;;;10.63;;
10731;SDS011;5417;42.686;23.244;2022-09-09T09:25:31;13.48;;;11.50;;
10731;SDS011;5417;42.686;23.244;2022-09-09T09:28:01;14.98;;;11.02;;
10731;SDS011;5417;42.686;23.244;2022-09-09T09:30:31;11.50;;;9.88;;
10731;SDS011;5417;42.686;23.244;2022-09-09T09:33:05;10.77;;;9.88;;
10731;SDS011;5417;42.686;23.244;2022-09-09T09:35:38;10.55;;;9.52;;
10731;SDS011;5417;42.686;23.244;2022-09-09T09:38:08;11.97;;;10.90;;
10731;SDS011;5417;42.686;23.244;2022-09-09T09:40:49;12.80;;;10.30;;
10731;SDS011;5417;42.686;23.244;2022-09-09T09:43:18;10.90;;;9.87;;
10731;SDS011;5417;42.686;23.244;2022-09-09T09:45:48;10.97;;;10.03;;
10731;SDS011;5417;42.686;23.244;2022-09-09T09:48:15;10.80;;;9.70;;
10731;SDS011;5417;42.686;23.244;2022-09-09T09:50:46;9.83;;;8.90;;
10731;SDS011;5417;42.686;23.244;2022-09-09T09:53:21;10.17;;;9.17;;
10731;SDS011;5417;42.686;23.244;2022-09-09T09:55:54;10.37;;;9.57;;
10731;SDS011;5417;42.686;23.244;2022-09-09T09:58:24;9.60;;;8.70;;
10731;SDS011;5417;42.686;23.244;2022-09-09T10:00:54;9.37;;;8.60;;
10731;SDS011;5417;42.686;23.244;2022-09-09T10:03:22;10.20;;;9.20;;
10731;SDS011;5417;42.686;23.244;2022-09-09T10:05:54;10.97;;;9.00;;
10731;SDS011;5417;42.686;23.244;2022-09-09T10:08:21;12.13;;;8.37;;
10731;SDS011;5417;42.686;23.244;2022-09-09T10:11:04;10.23;;;8.77;;
10731;SDS011;5417;42.686;23.244;2022-09-09T10:16:48;9.93;;;8.97;;
10731;SDS011;5417;42.686;23.244;2022-09-09T10:19:28;10.43;;;8.53;;
10731;SDS011;5417;42.686;23.244;2022-09-09T10:22:01;9.70;;;8.80;;
10731;SDS011;5417;42.686;23.244;2022-09-09T10:27:55;10.60;;;8.97;;
10731;SDS011;5417;42.686;23.244;2022-09-09T10:30:39;10.50;;;9.43;;
10731;SDS011;5417;42.686;23.244;2022-09-09T10:33:15;10.73;;;9.60;;
10731;SDS011;5417;42.686;23.244;2022-09-09T10:35:53;10.50;;;9.40;;
10731;SDS011;5417;42.686;23.244;2022-09-09T10:38:32;11.47;;;10.37;;
10731;SDS011;5417;42.686;23.244;2022-09-09T10:41:11;11.40;;;10.27;;
10731;SDS011;5417;42.686;23.244;2022-09-09T10:43:54;12.47;;;11.20;;
10731;SDS011;5417;42.686;23.244;2022-09-09T10:47:00;12.00;;;10.70;;
10731;SDS011;5417;42.686;23.244;2022-09-09T10:49:59;12.17;;;10.67;;
10731;SDS011;5417;42.686;23.244;2022-09-09T10:56:07;15.23;;;11.50;;
10731;SDS011;5417;42.686;23.244;2022-09-09T10:58:40;14.03;;;12.63;;
10731;SDS011;5417;42.686;23.244;2022-09-09T11:01:15;13.23;;;12.00;;
10731;SDS011;5417;42.686;23.244;2022-09-09T11:07:07;19.77;;;17.37;;
10731;SDS011;5417;42.686;23.244;2022-09-09T11:09:37;13.03;;;11.87;;
10731;SDS011;5417;42.686;23.244;2022-09-09T11:12:09;17.87;;;15.97;;
10731;SDS011;5417;42.686;23.244;2022-09-09T11:14:42;25.60;;;22.37;;
10731;SDS011;5417;42.686;23.244;2022-09-09T11:17:14;16.60;;;14.90;;
10731;SDS011;5417;42.686;23.244;2022-09-09T11:19:43;12.73;;;11.50;;
10731;SDS011;5417;42.686;23.244;2022-09-09T11:22:15;13.23;;;11.93;;
10731;SDS011;5417;42.686;23.244;2022-09-09T11:24:49;11.20;;;10.00;;
10731;SDS011;5417;42.686;23.244;2022-09-09T11:27:20;10.93;;;9.83;;
10731;SDS011;5417;42.686;23.244;2022-09-09T11:29:55;11.87;;;9.90;;
10731;SDS011;5417;42.686;23.244;2022-09-09T11:32:47;11.43;;;10.07;;
10731;SDS011;5417;42.686;23.244;2022-09-09T11:35:33;11.47;;;10.40;;
10731;SDS011;5417;42.686;23.244;2022-09-09T11:38:18;11.63;;;10.20;;
10731;SDS011;5417;42.686;23.244;2022-09-09T11:40:53;10.93;;;9.83;;
10731;SDS011;5417;42.686;23.244;2022-09-09T11:43:25;11.87;;;9.73;;
10731;SDS011;5417;42.686;23.244;2022-09-09T11:45:57;10.90;;;9.90;;
10731;SDS011;5417;42.686;23.244;2022-09-09T11:48:31;11.73;;;10.53;;
10731;SDS011;5417;42.686;23.244;2022-09-09T11:51:01;15.20;;;10.27;;
10731;SDS011;5417;42.686;23.244;2022-09-09T11:53:32;10.77;;;9.67;;
10731;SDS011;5417;42.686;23.244;2022-09-09T11:56:09;13.13;;;10.47;;
10731;SDS011;5417;42.686;23.244;2022-09-09T11:58:39;12.60;;;10.80;;
10731;SDS011;5417;42.686;23.244;2022-09-09T12:01:25;12.77;;;9.70;;
10731;SDS011;5417;42.686;23.244;2022-09-09T12:04:29;11.13;;;9.73;;
10731;SDS011;5417;42.686;23.244;2022-09-09T12:07:00;10.90;;;9.93;;
10731;SDS011;5417;42.686;23.244;2022-09-09T12:09:31;10.10;;;9.10;;
10731;SDS011;5417;42.686;23.244;2022-09-09T12:12:23;10.77;;;9.70;;
10731;SDS011;5417;42.686;23.244;2022-09-09T12:17:48;10.80;;;9.47;;
10731;SDS011;5417;42.686;23.244;2022-09-09T12:20:18;12.03;;;9.20;;
10731;SDS011;5417;42.686;23.244;2022-09-09T12:22:56;21.33;;;16.77;;
10731;SDS011;5417;42.686;23.244;2022-09-09T12:25:35;10.80;;;9.80;;
10731;SDS011;5417;42.686;23.244;2022-09-09T12:28:15;10.73;;;9.33;;
10731;SDS011;5417;42.686;23.244;2022-09-09T12:30:47;10.53;;;9.17;;
10731;SDS011;5417;42.686;23.244;2022-09-09T12:33:20;8.73;;;7.97;;
10731;SDS011;5417;42.686;23.244;2022-09-09T12:35:53;11.43;;;7.13;;
10731;SDS011;5417;42.686;23.244;2022-09-09T12:38:26;9.18;;;7.05;;
10731;SDS011;5417;42.686;23.244;2022-09-09T12:40:58;7.77;;;7.03;;
10731;SDS011;5417;42.686;23.244;2022-09-09T12:43:26;7.97;;;7.17;;
10731;SDS011;5417;42.686;23.244;2022-09-09T12:45:55;7.73;;;7.00;;
10731;SDS011;5417;42.686;23.244;2022-09-09T12:48:28;8.37;;;7.57;;
10731;SDS011;5417;42.686;23.244;2022-09-09T12:50:59;8.17;;;7.27;;
10731;SDS011;5417;42.686;23.244;2022-09-09T12:53:28;9.47;;;7.13;;
10731;SDS011;5417;42.686;23.244;2022-09-09T12:55:59;7.77;;;7.10;;
10731;SDS011;5417;42.686;23.244;2022-09-09T12:58:29;7.47;;;6.67;;
10731;SDS011;5417;42.686;23.244;2022-09-09T13:01:01;9.07;;;7.53;;
10731;SDS011;5417;42.686;23.244;2022-09-09T13:03:30;9.07;;;7.37;;
10731;SDS011;5417;42.686;23.244;2022-09-09T13:06:10;8.37;;;7.70;;
10731;SDS011;5417;42.686;23.244;2022-09-09T13:08:39;8.27;;;7.67;;
10731;SDS011;5417;42.686;23.244;2022-09-09T13:11:08;9.30;;;7.40;;
10731;SDS011;5417;42.686;23.244;2022-09-09T13:13:41;8.40;;;6.97;;
10731;SDS011;5417;42.686;23.244;2022-09-09T13:19:32;8.10;;;7.40;;
10731;SDS011;5417;42.686;23.244;2022-09-09T13:22:13;9.07;;;7.70;;
10731;SDS011;5417;42.686;23.244;2022-09-09T13:24:58;10.17;;;6.63;;
10731;SDS011;5417;42.686;23.244;2022-09-09T13:27:30;8.47;;;7.70;;
10731;SDS011;5417;42.686;23.244;2022-09-09T13:33:33;13.13;;;7.20;;
10731;SDS011;5417;42.686;23.244;2022-09-09T13:36:02;25.83;;;23.23;;
10731;SDS011;5417;42.686;23.244;2022-09-09T13:38:33;20.87;;;16.33;;
10731;SDS011;5417;42.686;23.244;2022-09-09T13:41:04;9.00;;;8.20;;
10731;SDS011;5417;42.686;23.244;2022-09-09T13:43:34;8.47;;;6.93;;
10731;SDS011;5417;42.686;23.244;2022-09-09T13:49:18;8.20;;;7.00;;
10731;SDS011;5417;42.686;23.244;2022-09-09T13:54:49;11.53;;;7.30;;
10731;SDS011;5417;42.686;23.244;2022-09-09T13:57:17;8.83;;;6.63;;
10731;SDS011;5417;42.686;23.244;2022-09-09T14:05:56;11.10;;;6.63;;
10731;SDS011;5417;42.686;23.244;2022-09-09T14:08:25;7.83;;;6.33;;
10731;SDS011;5417;42.686;23.244;2022-09-09T14:10:57;8.03;;;7.23;;
10731;SDS011;5417;42.686;23.244;2022-09-09T14:13:24;9.53;;;6.70;;
10731;SDS011;5417;42.686;23.244;2022-09-09T14:15:53;7.33;;;6.60;;
10731;SDS011;5417;42.686;23.244;2022-09-09T14:18:19;13.07;;;6.33;;
10731;SDS011;5417;42.686;23.244;2022-09-09T14:24:15;9.53;;;6.33;;
10731;SDS011;5417;42.686;23.244;2022-09-09T14:26:44;7.63;;;6.93;;
10731;SDS011;5417;42.686;23.244;2022-09-09T14:32:32;10.33;;;8.90;;
10731;SDS011;5417;42.686;23.244;2022-09-09T14:35:09;14.03;;;9.60;;
10731;SDS011;5417;42.686;23.244;2022-09-09T14:40:36;13.07;;;9.30;;
10731;SDS011;5417;42.686;23.244;2022-09-09T14:53:11;9.63;;;8.73;;
10731;SDS011;5417;42.686;23.244;2022-09-09T14:58:55;11.30;;;9.70;;
10731;SDS011;5417;42.686;23.244;2022-09-09T15:01:25;12.03;;;9.97;;
10731;SDS011;5417;42.686;23.244;2022-09-09T15:04:10;13.67;;;9.40;;
10731;SDS011;5417;42.686;23.244;2022-09-09T15:09:32;10.70;;;9.57;;
10731;SDS011;5417;42.686;23.244;2022-09-09T15:12:02;14.10;;;9.97;;
10731;SDS011;5417;42.686;23.244;2022-09-09T15:17:51;12.40;;;7.50;;
10731;SDS011;5417;42.686;23.244;2022-09-09T15:20:18;14.33;;;7.97;;
10731;SDS011;5417;42.686;23.244;2022-09-09T15:22:45;11.77;;;7.10;;
10731;SDS011;5417;42.686;23.244;2022-09-09T15:25:13;11.20;;;6.80;;
10731;SDS011;5417;42.686;23.244;2022-09-09T15:27:40;7.73;;;6.60;;
10731;SDS011;5417;42.686;23.244;2022-09-09T15:30:09;8.90;;;6.33;;
10731;SDS011;5417;42.686;23.244;2022-09-09T15:32:39;23.37;;;18.90;;
10731;SDS011;5417;42.686;23.244;2022-09-09T15:35:07;27.87;;;23.50;;
10731;SDS011;5417;42.686;23.244;2022-09-09T15:37:34;13.60;;;10.10;;
10731;SDS011;5417;42.686;23.244;2022-09-09T15:40:01;10.63;;;8.07;;
10731;SDS011;5417;42.686;23.244;2022-09-09T15:42:32;8.93;;;8.10;;
10731;SDS011;5417;42.686;23.244;2022-09-09T15:44:59;10.57;;;7.50;;
10731;SDS011;5417;42.686;23.244;2022-09-09T15:47:26;12.40;;;7.63;;
10731;SDS011;5417;42.686;23.244;2022-09-09T15:49:53;10.13;;;7.60;;
10731;SDS011;5417;42.686;23.244;2022-09-09T15:52:20;8.50;;;7.37;;
10731;SDS011;5417;42.686;23.244;2022-09-09T15:54:47;8.07;;;7.27;;
10731;SDS011;5417;42.686;23.244;2022-09-09T15:57:14;9.43;;;7.43;;
10731;SDS011;5417;42.686;23.244;2022-09-09T15:59:43;9.90;;;7.67;;
10731;SDS011;5417;42.686;23.244;2022-09-09T16:02:10;8.17;;;7.57;;
10731;SDS011;5417;42.686;23.244;2022-09-09T16:04:37;8.67;;;7.73;;
10731;SDS011;5417;42.686;23.244;2022-09-09T16:07:04;10.30;;;7.53;;
10731;SDS011;5417;42.686;23.244;2022-09-09T16:09:32;13.17;;;7.90;;
10731;SDS011;5417;42.686;23.244;2022-09-09T16:12:00;8.33;;;7.53;;
10731;SDS011;5417;42.686;23.244;2022-09-09T16:14:31;8.63;;;7.77;;
10731;SDS011;5417;42.686;23.244;2022-09-09T16:17:02;16.40;;;14.80;;
10731;SDS011;5417;42.686;23.244;2022-09-09T16:19:30;15.03;;;9.97;;
10731;SDS011;5417;42.686;23.244;2022-09-09T16:21:57;9.63;;;8.73;;
10731;SDS011;5417;42.686;23.244;2022-09-09T16:24:24;9.30;;;8.43;;
10731;SDS011;5417;42.686;23.244;2022-09-09T16:26:52;11.97;;;9.07;;
10731;SDS011;5417;42.686;23.244;2022-09-09T16:29:20;11.63;;;8.97;;
10731;SDS011;5417;42.686;23.244;2022-09-09T16:31:48;11.17;;;9.17;;
10731;SDS011;5417;42.686;23.244;2022-09-09T16:34:19;11.77;;;9.00;;
10731;SDS011;5417;42.686;23.244;2022-09-09T16:36:46;11.80;;;8.43;;
10731;SDS011;5417;42.686;23.244;2022-09-09T16:39:15;10.17;;;9.17;;
10731;SDS011;5417;42.686;23.244;2022-09-09T16:41:43;12.07;;;9.33;;
10731;SDS011;5417;42.686;23.244;2022-09-09T16:44:13;11.47;;;9.07;;
10731;SDS011;5417;42.686;23.244;2022-09-09T16:46:43;9.73;;;8.30;;
10731;SDS011;5417;42.686;23.244;2022-09-09T16:49:11;9.37;;;8.53;;
10731;SDS011;5417;42.686;23.244;2022-09-09T16:51:41;8.90;;;8.00;;
10731;SDS011;5417;42.686;23.244;2022-09-09T16:54:10;9.90;;;8.53;;
10731;SDS011;5417;42.686;23.244;2022-09-09T16:56:39;9.23;;;8.40;;
10731;SDS011;5417;42.686;23.244;2022-09-09T16:59:08;9.20;;;8.30;;
10731;SDS011;5417;42.686;23.244;2022-09-09T17:01:38;11.37;;;8.90;;
10731;SDS011;5417;42.686;23.244;2022-09-09T17:04:07;9.30;;;8.40;;
10731;SDS011;5417;42.686;23.244;2022-09-09T17:06:36;11.20;;;8.47;;
10731;SDS011;5417;42.686;23.244;2022-09-09T17:09:06;12.00;;;8.40;;
10731;SDS011;5417;42.686;23.244;2022-09-09T17:11:35;10.73;;;8.50;;
10731;SDS011;5417;42.686;23.244;2022-09-09T17:14:04;8.90;;;8.07;;
10731;SDS011;5417;42.686;23.244;2022-09-09T17:16:32;9.37;;;8.50;;
10731;SDS011;5417;42.686;23.244;2022-09-09T17:19:00;12.37;;;9.60;;
10731;SDS011;5417;42.686;23.244;2022-09-09T17:21:28;72.10;;;51.17;;
10731;SDS011;5417;42.686;23.244;2022-09-09T17:23:56;52.87;;;30.13;;
10731;SDS011;5417;42.686;23.244;2022-09-09T17:26:26;21.73;;;15.80;;
10731;SDS011;5417;42.686;23.244;2022-09-09T17:28:54;69.40;;;36.03;;
10731;SDS011;5417;42.686;23.244;2022-09-09T17:31:23;47.53;;;23.27;;
10731;SDS011;5417;42.686;23.244;2022-09-09T17:33:51;37.43;;;22.93;;
10731;SDS011;5417;42.686;23.244;2022-09-09T17:36:19;26.37;;;19.53;;
10731;SDS011;5417;42.686;23.244;2022-09-09T17:38:48;31.53;;;27.37;;
10731;SDS011;5417;42.686;23.244;2022-09-09T17:41:16;39.47;;;35.43;;
10731;SDS011;5417;42.686;23.244;2022-09-09T17:43:46;18.77;;;14.20;;
10731;SDS011;5417;42.686;23.244;2022-09-09T17:46:15;11.63;;;10.43;;
10731;SDS011;5417;42.686;23.244;2022-09-09T17:48:44;11.00;;;9.90;;
10731;SDS011;5417;42.686;23.244;2022-09-09T17:51:12;12.17;;;11.00;;
10731;SDS011;5417;42.686;23.244;2022-09-09T17:53:41;10.37;;;9.40;;
10731;SDS011;5417;42.686;23.244;2022-09-09T17:56:10;11.00;;;9.90;;
10731;SDS011;5417;42.686;23.244;2022-09-09T17:58:39;10.70;;;9.70;;
10731;SDS011;5417;42.686;23.244;2022-09-09T18:01:09;13.03;;;9.23;;
10731;SDS011;5417;42.686;23.244;2022-09-09T18:03:37;11.07;;;9.97;;
10731;SDS011;5417;42.686;23.244;2022-09-09T18:06:06;13.37;;;9.80;;
10731;SDS011;5417;42.686;23.244;2022-09-09T18:08:34;11.30;;;9.60;;
10731;SDS011;5417;42.686;23.244;2022-09-09T18:11:02;10.67;;;9.57;;
10731;SDS011;5417;42.686;23.244;2022-09-09T18:13:29;13.20;;;11.80;;
10731;SDS011;5417;42.686;23.244;2022-09-09T18:15:56;24.83;;;16.13;;
10731;SDS011;5417;42.686;23.244;2022-09-09T18:18:25;17.50;;;13.93;;
10731;SDS011;5417;42.686;23.244;2022-09-09T18:20:57;19.27;;;15.33;;
10731;SDS011;5417;42.686;23.244;2022-09-09T18:23:25;18.57;;;14.37;;
10731;SDS011;5417;42.686;23.244;2022-09-09T18:25:52;18.50;;;14.00;;
10731;SDS011;5417;42.686;23.244;2022-09-09T18:28:19;18.33;;;13.50;;
10731;SDS011;5417;42.686;23.244;2022-09-09T18:30:47;13.47;;;12.17;;
10731;SDS011;5417;42.686;23.244;2022-09-09T18:33:14;15.73;;;11.43;;
10731;SDS011;5417;42.686;23.244;2022-09-09T18:35:42;12.30;;;10.97;;
10731;SDS011;5417;42.686;23.244;2022-09-09T18:38:10;19.03;;;12.23;;
10731;SDS011;5417;42.686;23.244;2022-09-09T18:40:37;14.77;;;11.90;;
10731;SDS011;5417;42.686;23.244;2022-09-09T18:43:04;16.30;;;10.97;;